Time;durP1;ratioP1;P1;durP2;ratioP2;P2;SDS_P1;SDS_P2;PMS_P1;PMS_P2;Temp;Humidity;BMP_temperature;BMP_pressure;BME280_temperature;BME280_humidity;BME280_pressure;Samples;Min_cycle;Max_cycle;Signal;HPM_P1;HPM_P2
2022/05/01 00:00:03;;;;;;;;;;;;;;;15.58;60.05;100043.94;4398898;32;20255;-95
2022/05/01 00:02:30;;;;;;;;;;;;;;;15.69;60.06;100043.44;4398827;32;20023;-96
2022/05/01 00:04:56;;;;;;;;;;;;;;;15.64;60.06;100040.19;4398438;32;20024;-95
2022/05/01 00:07:21;;;;;;;;;;;;;;;15.46;60.04;100041.88;4399021;32;19978;-93
2022/05/01 00:09:46;;;;;;;;;;;;;;;15.59;60.05;100040.41;4398758;32;20290;-94
2022/05/01 00:12:12;;;;;;;;;;;;;;;15.65;60.06;100050.63;4398424;32;19986;-93
2022/05/01 00:14:37;;;;;;;;;;;;;;;15.59;60.05;100047.41;4399070;32;20004;-94
2022/05/01 00:17:02;;;;;;;;;;;;;;;15.47;60.04;100040.13;4397921;32;20620;-96
2022/05/01 00:19:28;;;;;;;;;;;;;;;15.39;60.04;100039.63;4397985;32;20009;-95
2022/05/01 00:21:55;;;;;;;;;;;;;;;15.44;60.04;100038.50;4398810;32;20004;-96
2022/05/01 00:24:21;;;;;;;;;;;;;;;15.43;60.05;100042.03;4397419;32;20027;-95
2022/05/01 00:26:49;;;;;;;;;;;;;;;15.42;60.05;100039.50;4398727;32;19982;-94
2022/05/01 00:29:14;;;;;;;;;;;;;;;15.53;60.05;100034.56;4398457;32;19963;-95
2022/05/01 00:31:40;;;;;;;;;;;;;;;15.38;60.04;100033.53;4398767;32;20040;-95
2022/05/01 00:36:49;;;;;;;;;;;;;;;15.39;60.04;100035.25;4400556;32;19980;-93
2022/05/01 00:39:15;;;;;;;;;;;;;;;15.35;60.05;100034.50;4398021;32;19998;-96
2022/05/01 00:41:41;;;;;;;;;;;;;;;15.45;60.04;100040.19;4398020;32;20017;-95
2022/05/01 00:44:10;;;;;;;;;;;;;;;15.56;60.06;100034.41;4397800;32;19994;-94
2022/05/01 00:46:36;;;;;;;;;;;;;;;15.60;60.05;100039.47;4398140;32;20041;-95
2022/05/01 00:49:02;;;;;;;;;;;;;;;15.46;60.04;100027.91;4396472;32;20008;-92
2022/05/01 00:51:31;;;;;;;;;;;;;;;15.54;60.05;100031.03;4396069;32;19990;-93
2022/05/01 00:54:07;;;;;;;;;;;;;;;15.50;60.05;100032.94;4395960;32;20068;-93
2022/05/01 00:56:32;;;;;;;;;;;;;;;15.46;60.04;100041.88;4383838;32;19954;-92
2022/05/01 00:59:00;;;;;;;;;;;;;;;15.49;60.05;100040.87;4396202;32;20008;-91
2022/05/01 01:01:26;;;;;;;;;;;;;;;15.41;60.05;100038.62;4396173;32;20009;-92
2022/05/01 01:03:53;;;;;;;;;;;;;;;15.38;60.04;100038.78;4395897;32;20308;-91
2022/05/01 01:06:18;;;;;;;;;;;;;;;15.39;60.04;100034.38;4396827;32;19982;-93
2022/05/01 01:08:44;;;;;;;;;;;;;;;15.35;60.04;100039.75;4397079;32;20012;-95
2022/05/01 01:11:09;;;;;;;;;;;;;;;15.33;60.04;100038.13;4397266;32;20017;-95
2022/05/01 01:13:34;;;;;;;;;;;;;;;15.31;60.05;100039.97;4396991;32;19981;-96
2022/05/01 01:15:59;;;;;;;;;;;;;;;15.28;60.04;100040.97;4397334;32;20064;-96
2022/05/01 01:18:25;;;;;;;;;;;;;;;15.25;60.04;100042.88;4397241;32;20028;-95
2022/05/01 01:20:54;;;;;;;;;;;;;;;15.15;60.03;100044.25;4397252;32;19990;-95
2022/05/01 01:23:20;;;;;;;;;;;;;;;15.20;60.03;100043.09;4396541;32;19978;-93
2022/05/01 01:25:45;;;;;;;;;;;;;;;15.35;60.04;100036.28;4396108;32;20018;-92
2022/05/01 01:28:10;;;;;;;;;;;;;;;15.20;60.03;100040.50;4395500;32;20334;-91
2022/05/01 01:33:20;;;;;;;;;;;;;;;15.22;60.03;100037.78;4397405;32;20076;-90
2022/05/01 01:35:47;;;;;;;;;;;;;;;15.24;60.04;100046.44;4394738;32;20362;-91
2022/05/01 01:38:12;;;;;;;;;;;;;;;15.37;60.04;100039.69;4395447;32;19998;-91
2022/05/01 01:40:38;;;;;;;;;;;;;;;15.46;60.04;100036.63;4395321;32;20014;-91
2022/05/01 01:43:03;;;;;;;;;;;;;;;15.24;60.04;100036.78;4395244;32;20046;-90
2022/05/01 01:45:29;;;;;;;;;;;;;;;15.12;60.03;100033.87;4382673;32;20536;-91
2022/05/01 01:47:55;;;;;;;;;;;;;;;15.15;60.03;100033.75;4395616;32;20328;-94
2022/05/01 01:50:21;;;;;;;;;;;;;;;15.20;60.03;100031.78;4396173;32;20025;-94
2022/05/01 01:52:46;;;;;;;;;;;;;;;15.08;60.02;100034.94;4395665;32;20012;-93
2022/05/01 01:55:18;;;;;;;;;;;;;;;15.16;60.03;100033.69;4395451;32;19974;-92
2022/05/01 01:57:46;;;;;;;;;;;;;;;15.16;60.04;100032.84;4395920;32;20007;-91
2022/05/01 02:00:15;;;;;;;;;;;;;;;15.20;60.03;100029.16;4395635;32;19990;-92
2022/05/01 02:02:41;;;;;;;;;;;;;;;15.17;60.03;100030.16;4396034;32;19996;-91
2022/05/01 02:05:06;;;;;;;;;;;;;;;15.09;60.03;100037.50;4395104;32;20332;-92
2022/05/01 02:07:32;;;;;;;;;;;;;;;15.14;60.03;100034.66;4395220;32;20081;-90
2022/05/01 02:10:03;;;;;;;;;;;;;;;15.21;60.03;100031.69;4395723;32;20289;-92
2022/05/01 02:12:29;;;;;;;;;;;;;;;15.01;60.03;100032.59;4395135;32;19993;-90
2022/05/01 02:14:55;;;;;;;;;;;;;;;15.37;60.04;100021.31;4382662;32;19970;-90
2022/05/01 02:17:20;;;;;;;;;;;;;;;15.14;60.03;100024.16;4395219;32;20018;-90
2022/05/01 02:19:45;;;;;;;;;;;;;;;15.28;60.04;100027.00;4395123;32;20009;-92
2022/05/01 02:22:21;;;;;;;;;;;;;;;15.23;60.04;100021.13;4395051;32;20032;-92
2022/05/01 02:24:47;;;;;;;;;;;;;;;15.12;60.03;100018.16;4394706;32;20336;-90
2022/05/01 02:27:12;;;;;;;;;;;;;;;15.11;60.03;100024.31;4382789;32;20013;-90
2022/05/01 02:29:42;;;;;;;;;;;;;;;15.16;60.04;100022.34;4396321;32;19982;-93
2022/05/01 02:32:13;;;;;;;;;;;;;;;15.26;60.04;100023.59;4384638;32;20017;-93
2022/05/01 02:34:41;;;;;;;;;;;;;;;15.12;60.04;100024.25;4396770;32;19989;-93
2022/05/01 02:37:07;;;;;;;;;;;;;;;15.07;60.02;100028.00;4395830;32;20623;-93
2022/05/01 02:39:33;;;;;;;;;;;;;;;15.03;60.03;100028.16;4396005;32;20005;-92
2022/05/01 02:42:01;;;;;;;;;;;;;;;14.96;60.02;100028.50;4396435;32;19997;-93
2022/05/01 02:44:29;;;;;;;;;;;;;;;14.95;60.01;100029.44;4396302;32;19974;-92
2022/05/01 02:46:55;;;;;;;;;;;;;;;14.95;60.02;100029.44;4395626;32;19994;-94
2022/05/01 02:49:21;;;;;;;;;;;;;;;15.07;60.02;100020.97;4396324;32;19998;-92
2022/05/01 02:51:52;;;;;;;;;;;;;;;15.09;60.02;100028.78;4397799;32;20024;-91
2022/05/01 02:54:17;;;;;;;;;;;;;;;15.11;60.03;100032.19;4397325;32;20085;-90
2022/05/01 02:56:47;;;;;;;;;;;;;;;15.02;60.02;100030.84;4397021;32;20085;-91
2022/05/01 02:59:15;;;;;;;;;;;;;;;14.95;60.02;100022.41;4396476;32;20012;-93
2022/05/01 03:01:41;;;;;;;;;;;;;;;15.04;60.03;100029.84;4396638;32;19978;-92
2022/05/01 03:04:06;;;;;;;;;;;;;;;15.04;60.03;100021.97;4398202;32;20287;-94
2022/05/01 03:06:34;;;;;;;;;;;;;;;15.02;60.03;100026.44;4398350;32;20021;-93
2022/05/01 03:09:00;;;;;;;;;;;;;;;14.92;60.02;100013.84;4397980;32;20012;-94
2022/05/01 03:11:25;;;;;;;;;;;;;;;15.11;60.03;100014.66;4397304;32;20327;-93
2022/05/01 03:13:50;;;;;;;;;;;;;;;15.09;60.03;100013.91;4396998;32;20228;-92
2022/05/01 03:16:16;;;;;;;;;;;;;;;15.13;60.03;100017.22;4397144;32;19987;-94
2022/05/01 03:24:12;;;;;;;;;;;;;;;15.21;60.03;100026.44;4398618;32;20016;-92
2022/05/01 03:26:38;;;;;;;;;;;;;;;15.30;60.03;100031.25;4397114;32;20295;-93
2022/05/01 03:29:03;;;;;;;;;;;;;;;15.26;60.03;100031.47;4396910;32;19994;-91
2022/05/01 03:31:29;;;;;;;;;;;;;;;15.37;60.04;100031.81;4396292;32;20000;-91
2022/05/01 03:33:57;;;;;;;;;;;;;;;15.42;60.04;100039.50;4396664;32;20012;-92
2022/05/01 03:36:26;;;;;;;;;;;;;;;15.43;60.05;100033.31;4396613;32;19986;-91
2022/05/01 03:38:52;;;;;;;;;;;;;;;15.46;60.04;100031.41;4396211;32;20040;-91
2022/05/01 03:41:18;;;;;;;;;;;;;;;15.42;60.04;100035.09;4396433;32;19978;-91
2022/05/01 03:43:43;;;;;;;;;;;;;;;15.30;60.03;100038.28;4395906;32;19995;-91
2022/05/01 03:46:10;;;;;;;;;;;;;;;15.19;60.03;100038.78;4396240;32;20020;-90
2022/05/01 03:48:35;;;;;;;;;;;;;;;15.20;60.03;100040.50;4383439;32;19990;-88
2022/05/01 03:51:01;;;;;;;;;;;;;;;15.30;60.04;100036.50;4395963;32;19978;-88
2022/05/01 03:53:28;;;;;;;;;;;;;;;15.50;60.05;100035.56;4396113;32;20220;-88
2022/05/01 03:55:54;;;;;;;;;;;;;;;15.55;60.05;100037.97;4395930;32;19986;-89
2022/05/01 03:58:22;;;;;;;;;;;;;;;15.56;60.06;100037.03;4396273;32;20020;-92
2022/05/01 04:00:48;;;;;;;;;;;;;;;15.56;60.05;100037.88;4396462;32;19959;-94
2022/05/01 04:03:18;;;;;;;;;;;;;;;15.59;60.05;100037.78;4397182;32;19982;-94
2022/05/01 04:05:46;;;;;;;;;;;;;;;15.54;60.04;100050.22;4397353;32;20016;-93
2022/05/01 04:08:11;;;;;;;;;;;;;;;15.52;60.05;100046.84;4397071;32;19961;-92
2022/05/01 04:10:41;;;;;;;;;;;;;;;15.55;60.05;100051.94;4396608;32;19984;-93
2022/05/01 04:13:06;;;;;;;;;;;;;;;15.54;60.04;100052.00;4397118;32;19978;-95
2022/05/01 04:15:32;;;;;;;;;;;;;;;15.64;60.06;100055.94;4442193;27;19980;-96
2022/05/01 04:18:02;;;;;;;;;;;;;;;15.60;60.05;100057.00;4456066;32;20518;-94
2022/05/01 04:20:28;;;;;;;;;;;;;;;15.63;60.06;100059.50;4443167;32;20019;-94
2022/05/01 04:22:59;;;;;;;;;;;;;;;15.76;60.06;100051.88;4457279;32;20018;-94
2022/05/01 04:25:27;;;;;;;;;;;;;;;15.81;60.06;100050.72;4457520;32;19993;-96
2022/05/01 04:27:55;;;;;;;;;;;;;;;15.85;60.07;100054.91;4444037;32;20341;-94
2022/05/01 04:30:22;;;;;;;;;;;;;;;16.01;60.08;100062.00;4443548;32;20037;-95
2022/05/01 04:32:56;;;;;;;;;;;;;;;15.86;60.07;100063.63;4457267;32;19967;-94
2022/05/01 04:35:21;;;;;;;;;;;;;;;15.96;60.07;100062.25;4457030;32;19965;-95
2022/05/01 04:37:47;;;;;;;;;;;;;;;16.16;60.08;100058.63;4456086;32;20027;-93
2022/05/01 04:40:14;;;;;;;;;;;;;;;16.27;60.09;100053.69;4457272;32;19977;-96
2022/05/01 04:42:39;;;;;;;;;;;;;;;16.31;60.10;100063.09;4458091;32;20029;-96
2022/05/01 04:45:05;;;;;;;;;;;;;;;16.41;60.09;100056.47;4457418;32;20000;-96
2022/05/01 04:47:33;;;;;;;;;;;;;;;16.47;60.11;100065.81;4457845;32;20038;-95
2022/05/01 04:49:58;;;;;;;;;;;;;;;16.54;60.10;100060.16;4457376;32;19984;-95
2022/05/01 04:52:24;;;;;;;;;;;;;;;16.76;60.11;100053.81;4443804;32;20013;-95
2022/05/01 04:54:49;;;;;;;;;;;;;;;16.85;60.13;100055.97;4456380;32;19993;-96
2022/05/01 04:57:15;;;;;;;;;;;;;;;16.99;60.12;100060.47;4456953;32;20047;-95
2022/05/01 04:59:40;;;;;;;;;;;;;;;17.06;60.12;100061.88;4456823;32;20270;-96
2022/05/01 05:02:06;;;;;;;;;;;;;;;17.24;60.14;100066.12;4457203;32;20305;-96
2022/05/01 05:04:31;;;;;;;;;;;;;;;17.32;60.14;100057.84;4458367;32;20042;-95
2022/05/01 05:06:56;;;;;;;;;;;;;;;17.42;60.15;100066.91;4461832;32;19997;-95
2022/05/01 05:12:06;;;;;;;;;;;;;;;17.60;60.16;100062.41;4460850;32;20044;-96
2022/05/01 05:14:31;;;;;;;;;;;;;;;17.68;60.16;100065.47;4446626;32;20004;-95
2022/05/01 05:16:57;;;;;;;;;;;;;;;17.80;60.17;100067.44;4443061;32;20016;-96
2022/05/01 05:19:23;;;;;;;;;;;;;;;17.86;60.18;100067.09;4443312;32;19976;-96
2022/05/01 05:21:49;;;;;;;;;;;;;;;18.05;60.18;100075.63;4443028;32;20019;-96
2022/05/01 05:24:14;;;;;;;;;;;;;;;18.11;60.19;100079.69;4443464;32;19989;-96
2022/05/01 05:26:40;;;;;;;;;;;;;;;18.25;60.20;100069.22;4443032;32;20008;-95
2022/05/01 05:29:05;;;;;;;;;;;;;;;18.35;60.20;100069.50;4442937;32;20336;-95
2022/05/01 05:31:30;;;;;;;;;;;;;;;18.49;60.21;100068.72;4442732;32;20088;-96
2022/05/01 05:33:55;;;;;;;;;;;;;;;18.52;60.21;100073.78;4442817;32;19997;-96
2022/05/01 05:36:21;;;;;;;;;;;;;;;18.49;60.21;100064.28;4442604;32;22321;-96
2022/05/01 05:38:46;;;;;;;;;;;;;;;18.66;60.21;100071.19;4442921;32;19973;-96
2022/05/01 05:41:11;;;;;;;;;;;;;;;18.90;60.23;100068.84;4456926;32;20010;-96
2022/05/01 05:43:37;;;;;;;;;;;;;;;18.97;60.23;100070.19;4442814;32;20393;-95
2022/05/01 05:46:02;;;;;;;;;;;;;;;19.14;60.24;100061.22;4442245;32;20039;-95
2022/05/01 05:48:27;;;;;;;;;;;;;;;19.19;60.24;100072.38;4442799;32;20057;-96
2022/05/01 05:50:52;;;;;;;;;;;;;;;19.20;60.25;100074.06;4442691;32;19996;-96
2022/05/01 05:53:18;;;;;;;;;;;;;;;19.28;60.25;100077.91;4442391;32;20227;-96
2022/05/01 05:55:45;;;;;;;;;;;;;;;19.41;60.26;100080.63;4442839;32;20008;-96
2022/05/01 05:58:10;;;;;;;;;;;;;;;19.46;60.25;100077.69;4442572;32;19989;-96
2022/05/01 06:00:35;;;;;;;;;;;;;;;19.44;60.26;100084.87;4455555;32;19988;-95
2022/05/01 06:03:01;;;;;;;;;;;;;;;19.27;60.25;100080.63;4442694;32;20011;-96
2022/05/01 06:05:26;;;;;;;;;;;;;;;19.47;60.27;100084.66;4442678;32;19992;-96
2022/05/01 06:07:52;;;;;;;;;;;;;;;19.55;60.27;100090.34;4455368;32;20023;-95
2022/05/01 06:10:17;;;;;;;;;;;;;;;19.57;60.26;100088.44;4442739;32;20031;-96
2022/05/01 06:12:42;;;;;;;;;;;;;;;19.60;60.27;100091.72;4455437;32;20297;-96
2022/05/01 06:15:08;;;;;;;;;;;;;;;19.76;60.28;100086.31;4442485;32;20285;-94
2022/05/01 06:17:33;;;;;;;;;;;;;;;19.78;60.28;100091.50;4442459;32;20011;-96
2022/05/01 06:19:58;;;;;;;;;;;;;;;19.71;60.28;100091.06;4441927;32;24367;-96
2022/05/01 06:22:24;;;;;;;;;;;;;;;19.70;60.27;100094.66;4442404;32;20103;-95
2022/05/01 06:24:49;;;;;;;;;;;;;;;19.72;60.28;100095.38;4455025;32;19989;-96
2022/05/01 06:27:14;;;;;;;;;;;;;;;19.73;60.28;100094.44;4442563;32;20319;-96
2022/05/01 06:29:39;;;;;;;;;;;;;;;19.79;60.28;100091.41;4442188;32;19977;-96
2022/05/01 06:32:05;;;;;;;;;;;;;;;19.99;60.28;100095.38;4442327;32;20032;-96
2022/05/01 06:34:30;;;;;;;;;;;;;;;20.00;60.29;100094.44;4442515;32;20329;-96
2022/05/01 06:36:55;;;;;;;;;;;;;;;20.13;60.29;100092.69;4441862;32;20004;-95
2022/05/01 06:39:21;;;;;;;;;;;;;;;20.24;60.31;100094.63;4441884;32;20004;-96
2022/05/01 06:41:46;;;;;;;;;;;;;;;20.35;60.31;100092.13;4441830;32;20004;-96
2022/05/01 06:44:11;;;;;;;;;;;;;;;20.25;60.30;100106.88;4441814;32;20326;-95
2022/05/01 06:46:36;;;;;;;;;;;;;;;20.40;60.31;100100.63;4441802;32;19999;-95
2022/05/01 06:49:02;;;;;;;;;;;;;;;20.53;60.31;100098.81;4441750;32;20012;-95
2022/05/01 06:51:27;;;;;;;;;;;;;;;20.65;60.33;100109.53;4441942;32;20025;-95
2022/05/01 06:53:52;;;;;;;;;;;;;;;20.94;60.35;100105.75;4442193;32;19986;-96
2022/05/01 06:56:17;;;;;;;;;;;;;;;21.25;60.36;100100.97;4441815;32;20021;-96
2022/05/01 06:58:43;;;;;;;;;;;;;;;21.57;60.38;100096.91;4455380;32;19985;-96
2022/05/01 07:01:08;;;;;;;;;;;;;;;21.60;60.37;100093.19;4441831;32;19982;-96
2022/05/01 07:03:34;;;;;;;;;;;;;;;21.75;60.38;100090.25;4442870;32;20007;-96
2022/05/01 07:06:02;;;;;;;;;;;;;;;21.80;60.38;100095.22;4442181;32;20021;-96
2022/05/01 07:08:27;;;;;;;;;;;;;;;21.91;60.39;100089.13;4442038;32;20593;-96
2022/05/01 07:10:52;;;;;;;;;;;;;;;21.96;60.40;100084.34;4441498;32;19989;-96
2022/05/01 07:13:18;;;;;;;;;;;;;;;21.88;60.39;100084.91;4441504;32;20039;-96
2022/05/01 07:15:46;;;;;;;;;;;;;;;21.96;60.40;100087.81;4442124;32;20318;-96
2022/05/01 07:18:12;;;;;;;;;;;;;;;22.10;60.41;100084.19;4429920;32;19985;-95
2022/05/01 07:20:39;;;;;;;;;;;;;;;22.19;60.40;100082.66;4430127;32;19992;-96
2022/05/01 07:23:06;;;;;;;;;;;;;;;22.29;60.42;100081.88;4429948;32;19976;-96
2022/05/01 07:25:31;;;;;;;;;;;;;;;22.24;60.40;100083.16;4442956;32;19969;-96
2022/05/01 07:27:56;;;;;;;;;;;;;;;22.27;60.41;100080.28;4430267;32;19985;-96
2022/05/01 07:30:31;;;;;;;;;;;;;;;22.33;60.42;100072.72;4429777;32;19981;-96
2022/05/01 07:32:58;;;;;;;;;;;;;;;22.23;60.41;100081.47;4429207;32;20065;-94
2022/05/01 07:35:23;;;;;;;;;;;;;;;22.24;60.40;100075.19;4431651;32;20040;-96
2022/05/01 07:37:48;;;;;;;;;;;;;;;22.19;60.41;100075.53;4431941;32;19985;-95
2022/05/01 07:40:14;;;;;;;;;;;;;;;22.20;60.41;100079.88;4432394;32;20246;-94
2022/05/01 07:42:39;;;;;;;;;;;;;;;22.35;60.42;100078.75;4445098;32;20338;-96
2022/05/01 07:45:04;;;;;;;;;;;;;;;22.57;60.42;100071.81;4432627;32;19973;-94
2022/05/01 07:47:30;;;;;;;;;;;;;;;22.76;60.43;100071.25;4434690;32;19972;-95
2022/05/01 07:49:55;;;;;;;;;;;;;;;22.64;60.43;100070.38;4435738;32;20039;-95
2022/05/01 07:52:20;;;;;;;;;;;;;;;22.85;60.44;100066.09;4435081;32;20012;-95
2022/05/01 07:54:49;;;;;;;;;;;;;;;23.16;60.45;100061.00;4434263;32;20276;-95
2022/05/01 07:57:17;;;;;;;;;;;;;;;23.46;60.47;100055.09;4433774;32;19989;-96
2022/05/01 07:59:52;;;;;;;;;;;;;;;23.70;60.49;100052.28;4432044;32;20007;-94
2022/05/01 08:02:24;;;;;;;;;;;;;;;24.04;60.51;100058.31;4431647;32;19996;-95
2022/05/01 08:04:52;;;;;;;;;;;;;;;24.08;60.51;100057.94;4432595;32;19949;-95
2022/05/01 08:07:20;;;;;;;;;;;;;;;24.24;60.51;100046.00;4432160;32;19977;-96
2022/05/01 08:09:47;;;;;;;;;;;;;;;24.38;60.52;100043.06;4431509;32;19974;-94
2022/05/01 08:12:16;;;;;;;;;;;;;;;24.70;60.53;100041.16;4431245;32;19993;-95
2022/05/01 08:14:44;;;;;;;;;;;;;;;25.02;60.55;100037.53;4431835;32;19992;-96
2022/05/01 08:17:12;;;;;;;;;;;;;;;25.36;60.57;100027.44;4438272;32;20000;-96
2022/05/01 08:22:27;;;;;;;;;;;;;;;25.65;60.59;100030.13;4456267;32;20035;-95
2022/05/01 08:24:54;;;;;;;;;;;;;;;25.54;60.58;100024.91;4442791;32;19984;-96
2022/05/01 08:27:19;;;;;;;;;;;;;;;25.78;60.60;100027.22;4443036;32;20422;-96
2022/05/01 08:29:44;;;;;;;;;;;;;;;25.97;60.60;100024.56;4443521;32;20012;-95
2022/05/01 08:32:16;;;;;;;;;;;;;;;25.98;60.60;100021.75;4442881;32;19993;-94
2022/05/01 08:34:41;;;;;;;;;;;;;;;26.22;60.61;100033.81;4442829;32;20038;-95
2022/05/01 08:37:06;;;;;;;;;;;;;;;26.40;60.63;100016.13;4442457;32;19985;-95
2022/05/01 08:39:32;;;;;;;;;;;;;;;26.51;60.63;100026.66;4442557;32;20000;-96
2022/05/01 08:41:57;;;;;;;;;;;;;;;26.66;60.64;100018.16;4442524;32;20264;-95
2022/05/01 08:44:30;;;;;;;;;;;;;;;26.61;60.63;100022.12;4442336;32;20304;-95
2022/05/01 08:47:00;;;;;;;;;;;;;;;26.69;60.63;100016.03;4441816;32;20299;-96
2022/05/01 08:49:26;;;;;;;;;;;;;;;26.78;60.64;100009.84;4455221;32;20009;-96
2022/05/01 08:51:51;;;;;;;;;;;;;;;26.85;60.64;100013.59;4442687;32;20016;-95
2022/05/01 08:54:16;;;;;;;;;;;;;;;26.81;60.65;100014.88;4455445;32;20298;-95
2022/05/01 08:56:42;;;;;;;;;;;;;;;26.75;60.64;100015.47;4442652;32;19977;-95
2022/05/01 08:59:09;;;;;;;;;;;;;;;26.83;60.65;100012.06;4442812;32;20049;-96
2022/05/01 09:01:34;;;;;;;;;;;;;;;26.80;60.64;100004.34;4442508;32;20001;-95
2022/05/01 09:04:00;;;;;;;;;;;;;;;26.82;60.65;100013.06;4442120;32;19977;-94
2022/05/01 09:06:25;;;;;;;;;;;;;;;26.85;60.64;99999.41;4442389;32;19994;-94
2022/05/01 09:08:51;;;;;;;;;;;;;;;26.97;60.65;99992.87;4442302;32;20340;-95
2022/05/01 09:14:01;;;;;;;;;;;;;;;26.97;60.66;99994.69;4455678;32;19983;-96
2022/05/01 09:16:26;;;;;;;;;;;;;;;26.95;60.66;99991.34;4442393;32;19973;-95
2022/05/01 09:18:51;;;;;;;;;;;;;;;26.84;60.65;99995.88;4442444;32;19999;-95
2022/05/01 09:21:17;;;;;;;;;;;;;;;26.84;60.65;99990.56;4442404;32;20001;-96
2022/05/01 09:23:43;;;;;;;;;;;;;;;26.77;60.65;99993.97;4442349;32;20242;-96
2022/05/01 09:26:12;;;;;;;;;;;;;;;26.74;60.65;99984.41;4442554;32;20053;-96
2022/05/01 09:28:46;;;;;;;;;;;;;;;26.69;60.64;99988.50;4442662;32;19965;-96
2022/05/01 09:31:11;;;;;;;;;;;;;;;26.73;60.65;99993.37;4442524;32;19996;-95
2022/05/01 09:33:36;;;;;;;;;;;;;;;26.97;60.66;99982.19;4442056;32;20030;-94
2022/05/01 09:36:02;;;;;;;;;;;;;;;26.78;60.64;99987.63;4442339;32;19977;-96
2022/05/01 09:38:27;;;;;;;;;;;;;;;26.90;60.65;99987.28;4442604;32;20043;-96
2022/05/01 09:40:54;;;;;;;;;;;;;;;26.90;60.66;99989.09;4442308;32;20060;-95
2022/05/01 09:43:34;;;;;;;;;;;;;;;26.85;60.65;99991.38;4455606;32;20413;-95
2022/05/01 09:46:14;;;;;;;;;;;;;;;27.02;60.67;99984.47;4442519;32;20322;-96
2022/05/01 09:48:40;;;;;;;;;;;;;;;26.91;60.65;99986.28;4454979;32;20041;-94
2022/05/01 09:51:15;;;;;;;;;;;;;;;26.92;60.65;99985.28;4442169;32;20023;-96
2022/05/01 09:53:42;;;;;;;;;;;;;;;26.92;60.65;99985.28;4455704;32;19977;-94
2022/05/01 09:56:07;;;;;;;;;;;;;;;26.96;60.66;99977.81;4442265;32;19989;-96
2022/05/01 09:58:33;;;;;;;;;;;;;;;26.69;60.64;99980.47;4441608;32;20037;-96
2022/05/01 10:00:58;;;;;;;;;;;;;;;26.31;60.63;99980.44;4442033;32;20051;-95
2022/05/01 10:03:24;;;;;;;;;;;;;;;26.42;60.63;99983.94;4441762;32;19981;-95
2022/05/01 10:05:50;;;;;;;;;;;;;;;26.51;60.64;99978.59;4441938;32;19999;-95
2022/05/01 10:08:15;;;;;;;;;;;;;;;26.54;60.63;99980.13;4441867;32;19997;-96
2022/05/01 10:10:41;;;;;;;;;;;;;;;26.71;60.65;99967.81;4454907;32;19992;-95
2022/05/01 10:13:06;;;;;;;;;;;;;;;26.88;60.66;99967.88;4441837;32;20033;-94
2022/05/01 10:15:31;;;;;;;;;;;;;;;27.11;60.67;99959.50;4441333;32;20025;-94
2022/05/01 10:17:56;;;;;;;;;;;;;;;26.74;60.65;99965.72;4441351;32;20048;-94
2022/05/01 10:20:23;;;;;;;;;;;;;;;26.56;60.64;99960.31;4441634;32;20321;-96
2022/05/01 10:22:48;;;;;;;;;;;;;;;26.52;60.64;99958.91;4454478;32;19995;-94
2022/05/01 10:25:16;;;;;;;;;;;;;;;26.64;60.65;99950.72;4441603;32;19977;-94
2022/05/01 10:27:43;;;;;;;;;;;;;;;26.77;60.65;99951.22;4441441;32;20309;-94
2022/05/01 10:33:03;;;;;;;;;;;;;;;27.03;60.67;99946.06;4441546;32;19981;-93
2022/05/01 10:35:35;;;;;;;;;;;;;;;26.77;60.65;99948.56;4456637;32;20033;-94
2022/05/01 10:38:12;;;;;;;;;;;;;;;26.88;60.66;99948.34;4455116;32;20004;-95
2022/05/01 10:40:58;;;;;;;;;;;;;;;27.10;60.67;99942.63;4456028;32;20045;-94
2022/05/01 10:43:30;;;;;;;;;;;;;;;27.26;60.67;99938.47;4454168;32;20074;-94
2022/05/01 10:45:56;;;;;;;;;;;;;;;27.38;60.68;99935.41;4441435;32;19989;-95
2022/05/01 10:48:37;;;;;;;;;;;;;;;27.47;60.68;99934.50;4441129;32;20330;-95
2022/05/01 10:51:21;;;;;;;;;;;;;;;27.62;60.69;99940.16;4441286;32;20341;-95
2022/05/01 10:54:05;;;;;;;;;;;;;;;27.64;60.70;99935.50;4454360;32;19987;-96
2022/05/01 10:56:35;;;;;;;;;;;;;;;27.53;60.69;99938.41;4454418;32;20355;-94
2022/05/01 10:59:19;;;;;;;;;;;;;;;27.52;60.70;99937.56;4441665;32;19989;-95
2022/05/01 11:01:52;;;;;;;;;;;;;;;27.50;60.69;99931.53;4455375;32;19985;-95
2022/05/01 11:04:19;;;;;;;;;;;;;;;27.70;60.70;99929.56;4440844;32;19978;-95
2022/05/01 11:06:45;;;;;;;;;;;;;;;27.62;60.69;99925.94;4440850;32;19991;-95
2022/05/01 11:09:13;;;;;;;;;;;;;;;27.37;60.68;99932.87;4441199;32;19985;-95
2022/05/01 11:11:39;;;;;;;;;;;;;;;27.20;60.68;99932.72;4443193;32;19993;-96
2022/05/01 11:14:04;;;;;;;;;;;;;;;27.21;60.68;99920.22;4443155;32;20317;-95
2022/05/01 11:16:48;;;;;;;;;;;;;;;27.18;60.67;99929.34;4443195;32;20011;-95
2022/05/01 11:19:13;;;;;;;;;;;;;;;27.11;60.67;99924.78;4455794;32;20020;-95
2022/05/01 11:21:39;;;;;;;;;;;;;;;27.07;60.67;99918.88;4442647;32;20360;-95
2022/05/01 11:24:04;;;;;;;;;;;;;;;27.23;60.67;99914.72;4442756;32;19985;-94
2022/05/01 11:26:29;;;;;;;;;;;;;;;27.55;60.69;99895.47;4442663;32;20310;-95
2022/05/01 11:28:55;;;;;;;;;;;;;;;27.68;60.70;99903.94;4442996;32;20035;-93
2022/05/01 11:31:36;;;;;;;;;;;;;;;27.54;60.69;99902.63;4442560;32;19989;-95
2022/05/01 11:34:21;;;;;;;;;;;;;;;27.58;60.69;99901.34;4455680;32;19993;-94
2022/05/01 11:36:49;;;;;;;;;;;;;;;27.70;60.70;99902.81;4455676;32;20012;-94
2022/05/01 11:39:14;;;;;;;;;;;;;;;27.65;60.70;99893.56;4442573;32;19993;-95
2022/05/01 11:41:41;;;;;;;;;;;;;;;27.41;60.68;99902.16;4442406;32;20004;-93
2022/05/01 11:44:19;;;;;;;;;;;;;;;27.22;60.68;99895.16;4442832;32;20017;-94
2022/05/01 11:46:44;;;;;;;;;;;;;;;26.88;60.66;99905.62;4442847;32;19973;-95
2022/05/01 11:49:09;;;;;;;;;;;;;;;26.90;60.66;99895.63;4442671;32;20000;-94
2022/05/01 11:51:35;;;;;;;;;;;;;;;26.91;60.66;99889.28;4442531;32;19999;-94
2022/05/01 11:54:00;;;;;;;;;;;;;;;26.97;60.67;99885.16;4442523;32;19995;-93
2022/05/01 12:04:38;;;;;;;;;;;;;;;26.92;60.66;99888.28;4455614;32;20003;-95
2022/05/01 12:07:15;;;;;;;;;;;;;;;26.92;60.65;99874.94;4442464;32;19981;-94
2022/05/01 12:09:40;;;;;;;;;;;;;;;27.18;60.68;99873.22;4442521;32;20013;-95
2022/05/01 12:12:06;;;;;;;;;;;;;;;27.21;60.68;99874.78;4442331;32;20007;-95
2022/05/01 12:14:32;;;;;;;;;;;;;;;27.42;60.69;99863.75;4442460;32;20001;-95
2022/05/01 12:16:57;;;;;;;;;;;;;;;27.58;60.70;99869.25;4442615;32;20269;-94
2022/05/01 12:19:32;;;;;;;;;;;;;;;27.72;60.70;99867.88;4442348;32;20290;-93
2022/05/01 12:21:58;;;;;;;;;;;;;;;27.65;60.70;99864.97;4455280;32;20045;-94
2022/05/01 12:24:24;;;;;;;;;;;;;;;27.79;60.71;99851.06;4442510;32;19981;-94
2022/05/01 12:26:50;;;;;;;;;;;;;;;27.62;60.70;99856.41;4442402;32;20335;-94
2022/05/01 12:29:15;;;;;;;;;;;;;;;27.92;60.72;99845.28;4442159;32;19997;-95
2022/05/01 12:32:02;;;;;;;;;;;;;;;28.11;60.72;99844.22;4442642;32;19997;-94
2022/05/01 12:34:28;;;;;;;;;;;;;;;28.41;60.74;99835.69;4455211;32;20040;-94
2022/05/01 12:36:57;;;;;;;;;;;;;;;28.71;60.75;99838.81;4442154;32;19985;-95
2022/05/01 12:39:22;;;;;;;;;;;;;;;28.85;60.76;99832.81;4442494;32;20045;-94
2022/05/01 12:45:07;;;;;;;;;;;;;;;29.14;60.78;99829.72;4456196;32;20048;-93
2022/05/01 12:47:33;;;;;;;;;;;;;;;29.26;60.78;99830.22;4441834;32;19992;-94
2022/05/01 12:49:59;;;;;;;;;;;;;;;29.18;60.77;99827.53;4442049;32;19997;-94
2022/05/01 12:52:34;;;;;;;;;;;;;;;28.83;60.75;99821.41;4442227;32;20024;-95
2022/05/01 12:55:07;;;;;;;;;;;;;;;28.83;60.75;99818.72;4441681;32;20489;-93
2022/05/01 12:57:33;;;;;;;;;;;;;;;28.58;60.74;99819.66;4442047;32;20372;-94
2022/05/01 12:59:58;;;;;;;;;;;;;;;28.54;60.75;99810.28;4442225;32;20060;-94
2022/05/01 13:02:24;;;;;;;;;;;;;;;28.53;60.75;99812.13;4442037;32;19993;-95
2022/05/01 13:04:56;;;;;;;;;;;;;;;28.55;60.75;99807.44;4441923;32;20028;-95
2022/05/01 13:07:31;;;;;;;;;;;;;;;28.47;60.74;99806.59;4442159;32;20339;-94
2022/05/01 13:09:56;;;;;;;;;;;;;;;28.43;60.73;99798.06;4442839;32;20352;-94
2022/05/01 13:12:30;;;;;;;;;;;;;;;28.31;60.73;99799.34;4442142;32;19993;-93